createdAt,value
2022-10-17T00:01:42.819Z,25.90
2022-10-17T00:04:17.680Z,27.60
2022-10-17T00:06:53.934Z,24.20
2022-10-17T00:09:22.875Z,27.20
2022-10-17T00:11:52.223Z,23.40
2022-10-17T00:14:33.013Z,22.90
2022-10-17T00:17:11.862Z,24.90
2022-10-17T00:19:46.821Z,25.30
2022-10-17T00:22:23.830Z,24.40
2022-10-17T00:24:59.169Z,24.10
2022-10-17T00:27:45.544Z,28.20
2022-10-17T00:30:25.849Z,25.40
2022-10-17T00:32:54.871Z,24.90
2022-10-17T00:38:23.521Z,23.70
2022-10-17T00:40:52.999Z,23.60
2022-10-17T00:43:21.896Z,23.60
2022-10-17T00:45:53.848Z,26.50
2022-10-17T00:48:26.198Z,26.20
2022-10-17T00:50:55.608Z,26.00
2022-10-17T00:53:30.667Z,20.80
2022-10-17T00:56:17.408Z,25.10
2022-10-17T00:58:46.710Z,23.20
2022-10-17T01:01:22.037Z,25.40
2022-10-17T01:03:51.556Z,24.30
2022-10-17T01:06:22.764Z,20.50
2022-10-17T01:09:06.792Z,23.90
2022-10-17T01:11:47.289Z,25.40
2022-10-17T01:14:43.502Z,25.50
2022-10-17T01:17:57.442Z,23.20
2022-10-17T01:20:47.173Z,24.40
2022-10-17T01:23:39.980Z,24.10
2022-10-17T01:26:27.480Z,26.30
2022-10-17T01:29:24.467Z,25.50
2022-10-17T01:32:37.921Z,23.70
2022-10-17T01:35:21.748Z,25.30
2022-10-17T01:38:15.543Z,23.40
2022-10-17T01:41:00.536Z,23.70
2022-10-17T01:43:38.211Z,26.50
2022-10-17T01:46:23.807Z,25.70
2022-10-17T01:48:54.610Z,27.40
2022-10-17T01:51:40.074Z,26.70
2022-10-17T01:54:19.027Z,26.30
2022-10-17T01:56:59.646Z,26.50
2022-10-17T01:59:42.061Z,30.30
2022-10-17T02:02:21.473Z,23.10
2022-10-17T02:04:55.725Z,29.00
2022-10-17T02:07:26.985Z,26.50
2022-10-17T02:10:14.856Z,25.20
2022-10-17T02:13:19.105Z,23.40
2022-10-17T02:16:21.270Z,21.50
2022-10-17T02:19:28.078Z,22.30
2022-10-17T02:22:35.539Z,23.10
2022-10-17T02:25:20.139Z,24.70
2022-10-17T02:28:11.374Z,24.70
2022-10-17T02:30:56.100Z,23.70
2022-10-17T02:33:42.242Z,22.80
2022-10-17T02:36:23.220Z,26.80
2022-10-17T02:39:12.087Z,28.60
2022-10-17T02:41:55.683Z,23.40
2022-10-17T02:44:36.323Z,27.80
2022-10-17T02:47:25.580Z,26.70
2022-10-17T02:50:06.887Z,27.70
2022-10-17T02:52:50.768Z,23.60
2022-10-17T02:55:33.166Z,26.90
2022-10-17T02:58:36.554Z,25.00
2022-10-17T03:01:06.113Z,28.40
2022-10-17T03:03:35.286Z,26.40
2022-10-17T03:06:04.525Z,26.20
2022-10-17T03:08:33.769Z,25.00
2022-10-17T03:11:12.349Z,27.00
2022-10-17T03:13:48.730Z,26.60
2022-10-17T03:16:28.572Z,30.60
2022-10-17T03:19:05.047Z,28.70
2022-10-17T03:21:40.032Z,24.70
2022-10-17T03:24:21.409Z,23.60
2022-10-17T03:26:59.382Z,24.70
2022-10-17T03:29:33.350Z,25.80
2022-10-17T03:32:11.347Z,30.50
2022-10-17T03:34:43.194Z,25.30
2022-10-17T03:37:47.574Z,25.90
2022-10-17T03:40:21.887Z,27.80
2022-10-17T03:43:00.812Z,27.90
2022-10-17T03:45:34.941Z,27.80
2022-10-17T03:48:04.302Z,28.40
2022-10-17T03:50:35.304Z,25.30
2022-10-17T03:53:04.088Z,28.30
2022-10-17T03:55:43.297Z,22.60
2022-10-17T03:58:23.730Z,26.50
2022-10-17T04:00:53.035Z,25.50
2022-10-17T04:03:22.379Z,28.80
2022-10-17T04:06:05.673Z,31.90
2022-10-17T04:08:39.465Z,26.50
2022-10-17T04:11:10.167Z,29.10
2022-10-17T04:13:44.167Z,29.00
2022-10-17T04:16:17.309Z,29.80
2022-10-17T04:18:54.176Z,28.90
2022-10-17T04:21:29.472Z,24.60
2022-10-17T04:24:05.549Z,28.60
2022-10-17T04:26:35.138Z,28.70
2022-10-17T04:29:06.448Z,29.80
2022-10-17T04:31:36.631Z,31.30
2022-10-17T04:34:15.295Z,34.00
2022-10-17T04:37:14.354Z,26.50
2022-10-17T04:39:52.941Z,29.20
2022-10-17T04:42:38.586Z,26.90
2022-10-17T04:45:35.365Z,30.90
2022-10-17T04:48:16.538Z,34.10
2022-10-17T04:51:30.519Z,28.60
2022-10-17T04:54:02.496Z,27.70
2022-10-17T04:56:31.642Z,27.80
2022-10-17T04:59:00.934Z,35.00
2022-10-17T05:01:30.667Z,34.50
2022-10-17T05:04:10.085Z,31.30
2022-10-17T05:06:42.513Z,28.70
2022-10-17T05:09:17.115Z,28.20
2022-10-17T05:11:58.424Z,28.70
2022-10-17T05:14:51.694Z,31.10
2022-10-17T05:17:32.963Z,34.10
2022-10-17T05:20:12.858Z,27.70
2022-10-17T05:23:09.702Z,29.70
2022-10-17T05:25:45.222Z,30.30
2022-10-17T05:28:34.176Z,33.60
2022-10-17T05:31:14.113Z,27.50
2022-10-17T05:33:46.557Z,33.00
2022-10-17T05:36:31.664Z,32.70
2022-10-17T05:39:29.167Z,32.10
2022-10-17T05:41:58.759Z,32.60
2022-10-17T05:44:37.949Z,31.60
2022-10-17T05:47:12.431Z,34.60
2022-10-17T05:49:59.384Z,32.00
2022-10-17T05:52:47.331Z,33.70
2022-10-17T05:55:32.572Z,32.70
2022-10-17T05:58:22.585Z,29.90
2022-10-17T06:01:16.099Z,29.30
2022-10-17T06:04:15.242Z,28.70
2022-10-17T06:07:01.553Z,32.80
2022-10-17T06:09:43.297Z,31.40
2022-10-17T06:12:16.177Z,32.70
2022-10-17T06:14:46.576Z,35.90
2022-10-17T06:18:08.663Z,34.20
2022-10-17T06:20:51.758Z,28.50
2022-10-17T06:23:29.022Z,29.20
2022-10-17T06:26:13.430Z,31.90
2022-10-17T06:28:56.653Z,32.30
2022-10-17T06:31:48.161Z,32.10
2022-10-17T06:38:16.792Z,33.90
2022-10-17T06:41:48.308Z,33.20
2022-10-17T06:44:42.132Z,32.20
2022-10-17T06:47:27.494Z,31.60
2022-10-17T06:50:52.808Z,32.00
2022-10-17T06:53:55.180Z,31.90
2022-10-17T07:00:27.694Z,32.00
2022-10-17T07:03:31.614Z,28.80
2022-10-17T07:06:20.101Z,32.40
2022-10-17T07:09:14.683Z,28.90
2022-10-17T07:11:55.232Z,37.70
2022-10-17T07:15:22.060Z,30.40
2022-10-17T07:22:06.393Z,34.10
2022-10-17T07:24:46.903Z,28.80
2022-10-17T07:27:31.807Z,31.80
2022-10-17T07:30:14.962Z,32.90
2022-10-17T07:33:08.539Z,31.70
2022-10-17T07:35:54.819Z,31.90
2022-10-17T07:38:37.031Z,31.10
2022-10-17T07:41:34.278Z,30.50
2022-10-17T07:44:36.969Z,31.00
2022-10-17T07:47:41.576Z,28.70
2022-10-17T07:50:26.616Z,28.70
2022-10-17T07:53:07.732Z,27.40
2022-10-17T07:56:07.763Z,33.50
2022-10-17T07:58:53.692Z,28.50
2022-10-17T08:01:30.913Z,28.10
2022-10-17T08:04:24.292Z,30.20
2022-10-17T08:07:20.025Z,30.80
2022-10-17T08:10:04.838Z,28.20
2022-10-17T08:12:44.744Z,32.20
2022-10-17T08:15:30.910Z,27.70
2022-10-17T08:18:14.442Z,28.60
2022-10-17T08:21:10.091Z,25.80
2022-10-17T08:23:50.660Z,26.20
2022-10-17T08:29:36.670Z,28.00
2022-10-17T08:32:39.756Z,23.60
2022-10-17T08:35:52.195Z,29.10
2022-10-17T08:38:52.578Z,25.20
2022-10-17T08:42:32.387Z,26.20
2022-10-17T08:45:22.393Z,26.60
2022-10-17T08:48:21.812Z,25.90
2022-10-17T08:51:18.366Z,22.40
2022-10-17T08:57:54.159Z,22.20
2022-10-17T09:01:13.209Z,25.50
2022-10-17T09:04:12.314Z,25.10
2022-10-17T09:07:14.082Z,25.00
2022-10-17T09:10:37.284Z,23.00
2022-10-17T09:17:17.221Z,23.50
2022-10-17T09:20:18.381Z,24.00
2022-10-17T09:23:21.982Z,22.10
2022-10-17T09:26:26.939Z,24.30
2022-10-17T09:29:39.007Z,23.70
2022-10-17T09:32:50.059Z,22.10
2022-10-17T09:35:35.784Z,22.40
2022-10-17T09:38:33.491Z,24.70
2022-10-17T09:41:44.117Z,19.20
2022-10-17T09:45:29.057Z,24.30
2022-10-17T09:48:36.887Z,22.60
2022-10-17T09:51:29.677Z,21.30
2022-10-17T09:54:32.693Z,20.50
2022-10-17T09:57:40.946Z,21.80
2022-10-17T10:00:53.798Z,21.20
2022-10-17T10:03:39.465Z,18.60
2022-10-17T10:06:31.130Z,20.90
2022-10-17T10:09:14.364Z,20.80
2022-10-17T10:12:18.481Z,24.00
2022-10-17T10:14:55.399Z,18.50
2022-10-17T10:17:40.082Z,20.20
2022-10-17T10:20:36.702Z,20.30
2022-10-17T10:23:25.338Z,17.70
2022-10-17T10:26:18.904Z,20.00
2022-10-17T10:29:42.504Z,20.50
2022-10-17T10:32:40.553Z,19.50
2022-10-17T10:35:22.718Z,17.50
2022-10-17T10:38:21.838Z,19.40
2022-10-17T10:41:19.050Z,17.30
2022-10-17T10:43:56.690Z,18.10
2022-10-17T10:46:50.462Z,19.80
2022-10-17T10:49:46.601Z,23.30
2022-10-17T10:52:37.420Z,20.60
2022-10-17T10:55:57.443Z,19.90
2022-10-17T10:59:26.473Z,20.70
2022-10-17T11:06:29.572Z,19.60
2022-10-17T11:09:19.109Z,18.50
2022-10-17T11:11:58.622Z,22.00
2022-10-17T11:14:38.767Z,16.80
2022-10-17T11:17:41.390Z,16.20
2022-10-17T11:20:53.090Z,20.00
2022-10-17T11:24:07.011Z,21.60
2022-10-17T11:27:00.975Z,19.70
2022-10-17T11:29:57.688Z,19.70
2022-10-17T11:33:14.040Z,18.10
2022-10-17T11:36:01.584Z,18.20
2022-10-17T11:39:00.851Z,21.20
2022-10-17T11:42:19.510Z,18.60
2022-10-17T11:45:25.505Z,18.50
2022-10-17T11:48:21.544Z,19.10
2022-10-17T11:54:39.731Z,20.90
2022-10-17T11:58:19.006Z,18.30
2022-10-17T12:00:55.947Z,19.40
2022-10-17T12:04:02.019Z,18.60
2022-10-17T12:06:51.962Z,18.10
2022-10-17T12:09:50.277Z,20.40
2022-10-17T12:12:33.835Z,17.30
2022-10-17T12:15:12.554Z,16.80
2022-10-17T12:17:50.717Z,17.10
2022-10-17T12:20:26.531Z,15.50
2022-10-17T12:23:36.803Z,19.00
2022-10-17T12:26:09.748Z,16.80
2022-10-17T12:28:52.884Z,17.30
2022-10-17T12:31:34.364Z,18.40
2022-10-17T12:34:16.811Z,17.90
2022-10-17T12:36:50.774Z,15.20
2022-10-17T12:39:58.179Z,15.40
2022-10-17T12:43:02.952Z,17.60
2022-10-17T12:46:26.403Z,15.90
2022-10-17T12:49:36.951Z,14.60
2022-10-17T12:52:22.604Z,16.50
2022-10-17T12:55:13.088Z,16.60
2022-10-17T12:58:12.198Z,19.10
2022-10-17T13:01:23.282Z,15.90
2022-10-17T13:04:15.002Z,17.10
2022-10-17T13:06:50.722Z,19.20
2022-10-17T13:10:07.712Z,18.20
2022-10-17T13:12:47.946Z,20.60
2022-10-17T13:18:11.858Z,16.90
2022-10-17T13:21:16.497Z,19.40
2022-10-17T13:23:55.024Z,15.50
2022-10-17T13:26:38.180Z,16.10
2022-10-17T13:29:31.428Z,16.90
2022-10-17T13:32:31.582Z,15.00
2022-10-17T13:37:57.908Z,17.50
2022-10-17T13:40:51.263Z,17.00
2022-10-17T13:43:47.398Z,14.50
2022-10-17T13:46:37.517Z,17.90
2022-10-17T13:49:28.234Z,17.00
2022-10-17T13:52:05.773Z,16.60
2022-10-17T13:54:41.642Z,16.30
2022-10-17T13:57:22.950Z,21.20
2022-10-17T14:00:11.389Z,17.60
2022-10-17T14:02:42.915Z,17.50
2022-10-17T14:05:31.281Z,20.30
2022-10-17T14:08:28.506Z,18.70
2022-10-17T14:11:59.248Z,17.10
2022-10-17T14:15:05.060Z,19.10
2022-10-17T14:17:44.525Z,22.90
2022-10-17T14:23:42.003Z,19.80
2022-10-17T14:26:25.004Z,22.30
2022-10-17T14:29:14.135Z,20.40
2022-10-17T14:31:44.551Z,22.10
2022-10-17T14:35:37.360Z,23.70
2022-10-17T14:38:22.032Z,20.00
2022-10-17T14:41:44.133Z,18.70
2022-10-17T14:45:01.844Z,30.20
2022-10-17T14:50:33.604Z,20.60
2022-10-17T14:53:30.889Z,25.40
2022-10-17T14:56:18.438Z,19.80
2022-10-17T14:58:55.952Z,19.50
2022-10-17T15:01:44.245Z,19.80
2022-10-17T15:04:32.976Z,20.50
2022-10-17T15:07:33.174Z,21.40
2022-10-17T15:10:28.849Z,23.50
2022-10-17T15:13:30.237Z,21.40
2022-10-17T15:16:36.454Z,25.10
2022-10-17T15:19:17.870Z,20.80
2022-10-17T15:21:49.217Z,22.90
2022-10-17T15:24:27.377Z,28.30
2022-10-17T15:27:33.181Z,23.00
2022-10-17T15:30:43.899Z,22.60
2022-10-17T15:33:19.490Z,20.50
2022-10-17T15:36:06.222Z,23.00
2022-10-17T15:38:42.473Z,23.60
2022-10-17T15:41:25.521Z,21.40
2022-10-17T15:44:12.776Z,24.90
2022-10-17T15:46:58.244Z,22.90
2022-10-17T15:49:46.407Z,19.40
2022-10-17T15:52:42.049Z,24.10
2022-10-17T15:55:30.020Z,25.50
2022-10-17T15:58:16.663Z,20.20
2022-10-17T16:01:11.925Z,21.10
2022-10-17T16:03:51.805Z,24.30
2022-10-17T16:06:32.921Z,24.60
2022-10-17T16:09:23.557Z,23.10
2022-10-17T16:12:04.121Z,21.50
2022-10-17T16:14:38.125Z,21.40
2022-10-17T16:17:25.869Z,21.80
2022-10-17T16:20:16.756Z,23.10
2022-10-17T16:25:48.369Z,24.20
2022-10-17T16:28:32.024Z,24.20
2022-10-17T16:31:22.735Z,23.20
2022-10-17T16:34:20.284Z,24.00
2022-10-17T16:37:01.131Z,22.40
2022-10-17T16:39:58.786Z,22.00
2022-10-17T16:42:36.001Z,23.60
2022-10-17T16:45:17.625Z,22.70
2022-10-17T16:48:10.905Z,25.10
2022-10-17T16:53:54.478Z,27.60
2022-10-17T16:56:32.143Z,28.80
2022-10-17T16:59:17.660Z,24.00
2022-10-17T17:01:54.292Z,28.40
2022-10-17T17:04:42.613Z,29.20
2022-10-17T17:07:45.006Z,26.90
2022-10-17T17:10:38.237Z,29.20
2022-10-17T17:13:24.488Z,28.20
2022-10-17T17:16:16.178Z,27.90
2022-10-17T17:18:50.172Z,25.30
2022-10-17T17:21:29.165Z,24.10
2022-10-17T17:24:06.111Z,27.20
2022-10-17T17:26:42.291Z,23.30
2022-10-17T17:29:29.946Z,26.50
2022-10-17T17:32:36.245Z,31.00
2022-10-17T17:35:13.087Z,26.20
2022-10-17T17:40:22.596Z,28.40
2022-10-17T17:42:56.690Z,26.70
2022-10-17T17:45:27.771Z,29.60
2022-10-17T17:48:04.977Z,27.60
2022-10-17T17:51:06.235Z,30.40
2022-10-17T17:53:41.228Z,25.50
2022-10-17T17:56:33.026Z,24.70
2022-10-17T17:59:14.532Z,29.70
2022-10-17T18:01:59.514Z,26.00
2022-10-17T18:04:41.113Z,25.90
2022-10-17T18:07:20.950Z,28.20
2022-10-17T18:09:52.473Z,26.70
2022-10-17T18:12:38.313Z,26.10
2022-10-17T18:15:34.213Z,30.60
2022-10-17T18:18:07.900Z,27.50
2022-10-17T18:20:55.266Z,26.30
2022-10-17T18:23:25.326Z,28.70
2022-10-17T18:26:32.226Z,27.60
2022-10-17T18:29:12.507Z,27.80
2022-10-17T18:34:41.343Z,26.10
2022-10-17T18:37:31.290Z,28.70
2022-10-17T18:40:24.940Z,29.00
2022-10-17T18:43:27.713Z,27.50
2022-10-17T18:47:02.952Z,29.00
2022-10-17T18:50:28.899Z,26.90
2022-10-17T18:53:15.576Z,30.90
2022-10-17T18:56:02.658Z,23.90
2022-10-17T19:02:11.696Z,25.50
2022-10-17T19:05:04.649Z,25.20
2022-10-17T19:08:14.365Z,27.30
2022-10-17T19:11:46.118Z,26.30
2022-10-17T19:14:52.924Z,27.80
2022-10-17T19:17:41.473Z,23.20
2022-10-17T19:20:24.847Z,25.90
2022-10-17T19:23:14.608Z,24.10
2022-10-17T19:25:49.754Z,24.30
2022-10-17T19:28:47.525Z,24.50
2022-10-17T19:31:42.282Z,23.60
2022-10-17T19:34:44.843Z,25.00
2022-10-17T19:37:57.414Z,23.20
2022-10-17T19:40:42.173Z,22.60
2022-10-17T19:43:52.735Z,25.30
2022-10-17T19:49:21.755Z,27.30
2022-10-17T19:52:19.346Z,25.80
2022-10-17T19:55:02.686Z,25.00
2022-10-17T20:01:29.610Z,27.20
2022-10-17T20:04:09.468Z,28.60
2022-10-17T20:07:14.748Z,27.60
2022-10-17T20:10:08.354Z,26.40
2022-10-17T20:13:03.155Z,28.60
2022-10-17T20:16:03.771Z,24.70
2022-10-17T20:18:52.137Z,26.20
2022-10-17T20:21:37.506Z,28.50
2022-10-17T20:24:33.268Z,26.10
2022-10-17T20:27:32.604Z,28.80
2022-10-17T20:30:34.634Z,25.80
2022-10-17T20:33:31.922Z,25.10
2022-10-17T20:36:27.957Z,29.20
2022-10-17T20:39:18.602Z,28.20
2022-10-17T20:42:08.276Z,33.50
2022-10-17T20:45:03.162Z,27.20
2022-10-17T20:48:08.032Z,27.00
2022-10-17T20:50:52.104Z,27.70
2022-10-17T20:53:38.971Z,29.00
2022-10-17T20:56:26.359Z,26.30
2022-10-17T20:59:11.731Z,26.80
2022-10-17T21:01:57.534Z,29.40
2022-10-17T21:05:14.980Z,28.60
2022-10-17T21:08:08.022Z,27.70
2022-10-17T21:10:53.016Z,25.90
2022-10-17T21:13:41.364Z,28.40
2022-10-17T21:16:46.772Z,28.90
2022-10-17T21:20:11.444Z,28.30
2022-10-17T21:23:07.534Z,30.20
2022-10-17T21:26:32.482Z,28.80
2022-10-17T21:32:51.986Z,27.50
2022-10-17T21:36:15.806Z,26.30
2022-10-17T21:39:43.205Z,24.30
2022-10-17T21:42:53.599Z,29.30
2022-10-17T21:45:54.210Z,26.10
2022-10-17T21:48:58.260Z,26.90
2022-10-17T21:52:01.478Z,28.50
2022-10-17T21:54:49.234Z,28.60
2022-10-17T21:57:23.399Z,28.60
2022-10-17T22:00:23.840Z,27.40
2022-10-17T22:03:09.180Z,29.10
2022-10-17T22:09:20.217Z,31.60
2022-10-17T22:12:10.631Z,27.10
2022-10-17T22:18:13.383Z,27.90
2022-10-17T22:21:02.696Z,28.50
2022-10-17T22:24:01.008Z,29.20
2022-10-17T22:27:07.872Z,26.60
2022-10-17T22:29:59.776Z,27.80
2022-10-17T22:32:53.221Z,26.20
2022-10-17T22:35:29.233Z,29.30
2022-10-17T22:38:33.788Z,30.50
2022-10-17T22:41:11.558Z,30.20
2022-10-17T22:44:12.773Z,30.50
2022-10-17T22:47:01.424Z,27.10
2022-10-17T22:49:40.495Z,27.10
2022-10-17T22:52:26.725Z,30.90
2022-10-17T22:55:01.832Z,27.80
2022-10-17T22:58:01.889Z,27.60
2022-10-17T23:00:51.850Z,29.80
2022-10-17T23:03:26.406Z,28.20
2022-10-17T23:06:12.592Z,28.80
2022-10-17T23:08:58.816Z,28.10
2022-10-17T23:11:51.667Z,28.00
2022-10-17T23:14:44.590Z,24.10
2022-10-17T23:17:43.699Z,26.80
2022-10-17T23:20:27.136Z,27.50
2022-10-17T23:23:10.246Z,32.10
2022-10-17T23:26:26.633Z,26.70
2022-10-17T23:29:17.826Z,27.60
2022-10-17T23:32:24.998Z,27.30
2022-10-17T23:35:21.262Z,25.30
2022-10-17T23:38:12.067Z,30.80
2022-10-17T23:43:53.316Z,31.90
2022-10-17T23:46:38.109Z,28.40
2022-10-17T23:49:49.794Z,25.30
2022-10-17T23:52:37.684Z,25.00
2022-10-17T23:55:27.772Z,29.20
2022-10-17T23:58:14.081Z,23.60
